sensor_id;sensor_type;location;lat;lon;timestamp;P1;durP1;ratioP1;P2;durP2;ratioP2
4409;SDS011;2218;51.408;7.208;2022-07-23T00:00:06;4.53;;;4.13;;
4409;SDS011;2218;51.408;7.208;2022-07-23T00:02:35;3.60;;;3.40;;
4409;SDS011;2218;51.408;7.208;2022-07-23T00:05:03;4.00;;;3.70;;
4409;SDS011;2218;51.408;7.208;2022-07-23T00:07:30;4.20;;;3.90;;
4409;SDS011;2218;51.408;7.208;2022-07-23T00:09:59;4.83;;;4.43;;
4409;SDS011;2218;51.408;7.208;2022-07-23T00:12:26;4.70;;;4.30;;
4409;SDS011;2218;51.408;7.208;2022-07-23T00:14:53;4.00;;;3.70;;
4409;SDS011;2218;51.408;7.208;2022-07-23T00:17:20;4.30;;;4.00;;
4409;SDS011;2218;51.408;7.208;2022-07-23T00:19:47;4.23;;;3.93;;
4409;SDS011;2218;51.408;7.208;2022-07-23T00:22:14;4.13;;;3.83;;
4409;SDS011;2218;51.408;7.208;2022-07-23T00:24:41;3.80;;;3.50;;
4409;SDS011;2218;51.408;7.208;2022-07-23T00:27:09;4.50;;;4.10;;
4409;SDS011;2218;51.408;7.208;2022-07-23T00:29:36;3.77;;;3.53;;
4409;SDS011;2218;51.408;7.208;2022-07-23T00:32:03;4.40;;;4.10;;
4409;SDS011;2218;51.408;7.208;2022-07-23T00:34:31;3.83;;;3.63;;
4409;SDS011;2218;51.408;7.208;2022-07-23T00:36:58;4.40;;;4.10;;
4409;SDS011;2218;51.408;7.208;2022-07-23T00:39:25;4.40;;;4.10;;
4409;SDS011;2218;51.408;7.208;2022-07-23T00:41:52;4.37;;;4.07;;
4409;SDS011;2218;51.408;7.208;2022-07-23T00:44:21;4.07;;;3.77;;
4409;SDS011;2218;51.408;7.208;2022-07-23T00:46:51;4.10;;;3.80;;
4409;SDS011;2218;51.408;7.208;2022-07-23T00:49:21;4.27;;;3.97;;
4409;SDS011;2218;51.408;7.208;2022-07-23T00:51:49;4.17;;;3.87;;
4409;SDS011;2218;51.408;7.208;2022-07-23T00:54:17;4.30;;;4.00;;
4409;SDS011;2218;51.408;7.208;2022-07-23T00:56:46;4.20;;;3.90;;
4409;SDS011;2218;51.408;7.208;2022-07-23T00:59:13;4.27;;;3.87;;
4409;SDS011;2218;51.408;7.208;2022-07-23T01:01:42;4.30;;;4.00;;
4409;SDS011;2218;51.408;7.208;2022-07-23T01:04:12;4.37;;;4.07;;
4409;SDS011;2218;51.408;7.208;2022-07-23T01:06:40;3.97;;;3.67;;
4409;SDS011;2218;51.408;7.208;2022-07-23T01:09:09;5.03;;;4.40;;
4409;SDS011;2218;51.408;7.208;2022-07-23T01:11:36;4.17;;;3.87;;
4409;SDS011;2218;51.408;7.208;2022-07-23T01:14:09;4.97;;;4.43;;
4409;SDS011;2218;51.408;7.208;2022-07-23T01:16:39;3.97;;;3.67;;
4409;SDS011;2218;51.408;7.208;2022-07-23T01:19:10;4.23;;;3.83;;
4409;SDS011;2218;51.408;7.208;2022-07-23T01:21:39;4.07;;;3.77;;
4409;SDS011;2218;51.408;7.208;2022-07-23T01:24:10;4.50;;;4.10;;
4409;SDS011;2218;51.408;7.208;2022-07-23T01:26:46;4.77;;;4.37;;
4409;SDS011;2218;51.408;7.208;2022-07-23T01:29:15;4.30;;;4.00;;
4409;SDS011;2218;51.408;7.208;2022-07-23T01:31:45;4.17;;;3.87;;
4409;SDS011;2218;51.408;7.208;2022-07-23T01:34:11;5.20;;;4.70;;
4409;SDS011;2218;51.408;7.208;2022-07-23T01:36:39;5.03;;;4.63;;
4409;SDS011;2218;51.408;7.208;2022-07-23T01:39:08;4.10;;;3.80;;
4409;SDS011;2218;51.408;7.208;2022-07-23T01:41:36;5.00;;;4.60;;
4409;SDS011;2218;51.408;7.208;2022-07-23T01:44:03;4.20;;;3.90;;
4409;SDS011;2218;51.408;7.208;2022-07-23T01:46:30;4.20;;;3.90;;
4409;SDS011;2218;51.408;7.208;2022-07-23T01:48:58;4.57;;;4.20;;
4409;SDS011;2218;51.408;7.208;2022-07-23T01:51:45;4.67;;;4.27;;
4409;SDS011;2218;51.408;7.208;2022-07-23T01:54:31;5.43;;;5.03;;
4409;SDS011;2218;51.408;7.208;2022-07-23T01:57:00;3.93;;;3.70;;
4409;SDS011;2218;51.408;7.208;2022-07-23T01:59:28;4.27;;;3.97;;
4409;SDS011;2218;51.408;7.208;2022-07-23T02:01:55;4.20;;;3.90;;
4409;SDS011;2218;51.408;7.208;2022-07-23T02:04:24;3.80;;;3.50;;
4409;SDS011;2218;51.408;7.208;2022-07-23T02:06:52;4.17;;;3.77;;
4409;SDS011;2218;51.408;7.208;2022-07-23T02:09:19;4.83;;;4.30;;
4409;SDS011;2218;51.408;7.208;2022-07-23T02:11:49;3.67;;;3.47;;
4409;SDS011;2218;51.408;7.208;2022-07-23T02:14:17;3.97;;;3.67;;
4409;SDS011;2218;51.408;7.208;2022-07-23T02:16:45;3.87;;;3.57;;
4409;SDS011;2218;51.408;7.208;2022-07-23T02:19:13;4.80;;;4.40;;
4409;SDS011;2218;51.408;7.208;2022-07-23T02:21:40;4.43;;;4.03;;
4409;SDS011;2218;51.408;7.208;2022-07-23T02:24:08;4.13;;;3.83;;
4409;SDS011;2218;51.408;7.208;2022-07-23T02:26:36;4.60;;;4.20;;
4409;SDS011;2218;51.408;7.208;2022-07-23T02:29:06;4.00;;;3.70;;
4409;SDS011;2218;51.408;7.208;2022-07-23T02:31:34;3.90;;;3.60;;
4409;SDS011;2218;51.408;7.208;2022-07-23T02:34:01;4.10;;;3.80;;
4409;SDS011;2218;51.408;7.208;2022-07-23T02:36:29;4.10;;;3.80;;
4409;SDS011;2218;51.408;7.208;2022-07-23T02:38:57;4.10;;;3.80;;
4409;SDS011;2218;51.408;7.208;2022-07-23T02:41:26;4.30;;;4.00;;
4409;SDS011;2218;51.408;7.208;2022-07-23T02:43:53;3.50;;;3.20;;
4409;SDS011;2218;51.408;7.208;2022-07-23T02:46:22;4.63;;;4.23;;
4409;SDS011;2218;51.408;7.208;2022-07-23T02:48:49;4.90;;;4.40;;
4409;SDS011;2218;51.408;7.208;2022-07-23T02:51:16;3.90;;;3.60;;
4409;SDS011;2218;51.408;7.208;2022-07-23T02:53:51;4.50;;;4.20;;
4409;SDS011;2218;51.408;7.208;2022-07-23T02:56:19;4.30;;;4.00;;
4409;SDS011;2218;51.408;7.208;2022-07-23T02:58:46;4.40;;;4.00;;
4409;SDS011;2218;51.408;7.208;2022-07-23T03:01:13;4.20;;;3.90;;
4409;SDS011;2218;51.408;7.208;2022-07-23T03:03:42;4.27;;;3.97;;
4409;SDS011;2218;51.408;7.208;2022-07-23T03:06:09;4.00;;;3.73;;
4409;SDS011;2218;51.408;7.208;2022-07-23T03:08:37;4.30;;;4.00;;
4409;SDS011;2218;51.408;7.208;2022-07-23T03:11:04;4.33;;;4.00;;
4409;SDS011;2218;51.408;7.208;2022-07-23T03:13:36;4.20;;;3.90;;
4409;SDS011;2218;51.408;7.208;2022-07-23T03:16:04;4.40;;;4.10;;
4409;SDS011;2218;51.408;7.208;2022-07-23T03:18:34;4.03;;;3.73;;
4409;SDS011;2218;51.408;7.208;2022-07-23T03:21:04;3.50;;;3.30;;
4409;SDS011;2218;51.408;7.208;2022-07-23T03:23:31;4.40;;;4.00;;
4409;SDS011;2218;51.408;7.208;2022-07-23T03:25:58;4.30;;;4.00;;
4409;SDS011;2218;51.408;7.208;2022-07-23T03:28:25;4.13;;;3.83;;
4409;SDS011;2218;51.408;7.208;2022-07-23T03:30:52;3.80;;;3.50;;
4409;SDS011;2218;51.408;7.208;2022-07-23T03:33:20;3.77;;;3.50;;
4409;SDS011;2218;51.408;7.208;2022-07-23T03:35:47;3.60;;;3.30;;
4409;SDS011;2218;51.408;7.208;2022-07-23T03:38:23;3.93;;;3.53;;
4409;SDS011;2218;51.408;7.208;2022-07-23T03:40:50;4.00;;;3.70;;
4409;SDS011;2218;51.408;7.208;2022-07-23T03:43:17;3.73;;;3.43;;
4409;SDS011;2218;51.408;7.208;2022-07-23T03:45:44;3.60;;;3.40;;
4409;SDS011;2218;51.408;7.208;2022-07-23T03:48:11;3.60;;;3.40;;
4409;SDS011;2218;51.408;7.208;2022-07-23T03:50:38;4.10;;;3.80;;
4409;SDS011;2218;51.408;7.208;2022-07-23T03:53:05;3.60;;;3.30;;
4409;SDS011;2218;51.408;7.208;2022-07-23T03:55:35;4.00;;;3.80;;
4409;SDS011;2218;51.408;7.208;2022-07-23T03:58:02;3.27;;;3.00;;
4409;SDS011;2218;51.408;7.208;2022-07-23T04:00:29;3.80;;;3.53;;
4409;SDS011;2218;51.408;7.208;2022-07-23T04:02:57;3.60;;;3.40;;
4409;SDS011;2218;51.408;7.208;2022-07-23T04:05:24;3.50;;;3.20;;
4409;SDS011;2218;51.408;7.208;2022-07-23T04:07:57;4.07;;;3.77;;
4409;SDS011;2218;51.408;7.208;2022-07-23T04:10:24;3.90;;;3.60;;
4409;SDS011;2218;51.408;7.208;2022-07-23T04:12:53;4.00;;;3.70;;
4409;SDS011;2218;51.408;7.208;2022-07-23T04:15:19;3.77;;;3.47;;
4409;SDS011;2218;51.408;7.208;2022-07-23T04:17:46;3.47;;;3.27;;
4409;SDS011;2218;51.408;7.208;2022-07-23T04:20:16;4.50;;;4.10;;
4409;SDS011;2218;51.408;7.208;2022-07-23T04:22:51;3.23;;;3.03;;
4409;SDS011;2218;51.408;7.208;2022-07-23T04:25:18;3.50;;;3.30;;
4409;SDS011;2218;51.408;7.208;2022-07-23T04:27:45;3.57;;;3.33;;
4409;SDS011;2218;51.408;7.208;2022-07-23T04:30:13;3.80;;;3.50;;
4409;SDS011;2218;51.408;7.208;2022-07-23T04:32:40;3.43;;;3.23;;
4409;SDS011;2218;51.408;7.208;2022-07-23T04:35:15;4.00;;;3.70;;
4409;SDS011;2218;51.408;7.208;2022-07-23T04:37:43;3.80;;;3.50;;
4409;SDS011;2218;51.408;7.208;2022-07-23T04:40:10;3.83;;;3.53;;
4409;SDS011;2218;51.408;7.208;2022-07-23T04:42:39;3.80;;;3.50;;
4409;SDS011;2218;51.408;7.208;2022-07-23T04:45:06;3.30;;;3.10;;
4409;SDS011;2218;51.408;7.208;2022-07-23T04:47:36;3.80;;;3.50;;
4409;SDS011;2218;51.408;7.208;2022-07-23T04:50:03;3.50;;;3.20;;
4409;SDS011;2218;51.408;7.208;2022-07-23T04:52:31;5.07;;;3.53;;
4409;SDS011;2218;51.408;7.208;2022-07-23T04:54:58;3.50;;;3.30;;
4409;SDS011;2218;51.408;7.208;2022-07-23T04:57:25;3.77;;;3.50;;
4409;SDS011;2218;51.408;7.208;2022-07-23T04:59:52;3.50;;;3.30;;
4409;SDS011;2218;51.408;7.208;2022-07-23T05:02:19;4.23;;;3.87;;
4409;SDS011;2218;51.408;7.208;2022-07-23T05:04:48;3.77;;;3.47;;
4409;SDS011;2218;51.408;7.208;2022-07-23T05:07:15;3.60;;;3.30;;
4409;SDS011;2218;51.408;7.208;2022-07-23T05:09:42;3.13;;;2.93;;
4409;SDS011;2218;51.408;7.208;2022-07-23T05:12:09;4.00;;;3.70;;
4409;SDS011;2218;51.408;7.208;2022-07-23T05:14:36;3.47;;;3.27;;
4409;SDS011;2218;51.408;7.208;2022-07-23T05:17:03;3.37;;;3.10;;
4409;SDS011;2218;51.408;7.208;2022-07-23T05:19:30;3.80;;;3.50;;
4409;SDS011;2218;51.408;7.208;2022-07-23T05:21:59;3.60;;;3.30;;
4409;SDS011;2218;51.408;7.208;2022-07-23T05:24:26;3.67;;;3.40;;
4409;SDS011;2218;51.408;7.208;2022-07-23T05:26:53;3.30;;;3.10;;
4409;SDS011;2218;51.408;7.208;2022-07-23T05:29:21;3.90;;;3.60;;
4409;SDS011;2218;51.408;7.208;2022-07-23T05:31:48;2.60;;;2.40;;
4409;SDS011;2218;51.408;7.208;2022-07-23T05:34:15;3.80;;;3.50;;
4409;SDS011;2218;51.408;7.208;2022-07-23T05:36:42;3.20;;;3.00;;
4409;SDS011;2218;51.408;7.208;2022-07-23T05:39:11;3.77;;;3.47;;
4409;SDS011;2218;51.408;7.208;2022-07-23T05:41:38;3.17;;;2.97;;
4409;SDS011;2218;51.408;7.208;2022-07-23T05:44:05;3.27;;;3.07;;
4409;SDS011;2218;51.408;7.208;2022-07-23T05:46:36;3.10;;;2.90;;
4409;SDS011;2218;51.408;7.208;2022-07-23T05:49:06;3.07;;;2.87;;
4409;SDS011;2218;51.408;7.208;2022-07-23T05:51:52;3.10;;;2.90;;
4409;SDS011;2218;51.408;7.208;2022-07-23T05:54:30;3.03;;;2.83;;
4409;SDS011;2218;51.408;7.208;2022-07-23T05:56:57;3.30;;;3.10;;
4409;SDS011;2218;51.408;7.208;2022-07-23T05:59:25;3.30;;;3.10;;
4409;SDS011;2218;51.408;7.208;2022-07-23T06:01:52;3.37;;;3.17;;
4409;SDS011;2218;51.408;7.208;2022-07-23T06:04:19;3.73;;;3.43;;
4409;SDS011;2218;51.408;7.208;2022-07-23T06:07:00;3.50;;;3.30;;
4409;SDS011;2218;51.408;7.208;2022-07-23T06:09:27;3.10;;;2.90;;
4409;SDS011;2218;51.408;7.208;2022-07-23T06:11:56;3.50;;;3.30;;
4409;SDS011;2218;51.408;7.208;2022-07-23T06:14:23;3.23;;;3.03;;
4409;SDS011;2218;51.408;7.208;2022-07-23T06:16:53;3.37;;;3.17;;
4409;SDS011;2218;51.408;7.208;2022-07-23T06:19:21;3.23;;;3.03;;
4409;SDS011;2218;51.408;7.208;2022-07-23T06:21:49;3.10;;;2.90;;
4409;SDS011;2218;51.408;7.208;2022-07-23T06:24:16;3.20;;;3.00;;
4409;SDS011;2218;51.408;7.208;2022-07-23T06:26:45;3.00;;;2.80;;
4409;SDS011;2218;51.408;7.208;2022-07-23T06:29:13;3.10;;;2.90;;
4409;SDS011;2218;51.408;7.208;2022-07-23T06:31:41;3.30;;;3.10;;
4409;SDS011;2218;51.408;7.208;2022-07-23T06:34:08;2.93;;;2.73;;
4409;SDS011;2218;51.408;7.208;2022-07-23T06:36:35;2.87;;;2.67;;
4409;SDS011;2218;51.408;7.208;2022-07-23T06:39:02;3.03;;;2.83;;
4409;SDS011;2218;51.408;7.208;2022-07-23T06:41:29;3.07;;;2.87;;
4409;SDS011;2218;51.408;7.208;2022-07-23T06:43:58;3.37;;;3.17;;
4409;SDS011;2218;51.408;7.208;2022-07-23T06:46:28;3.30;;;3.10;;
4409;SDS011;2218;51.408;7.208;2022-07-23T06:48:55;3.60;;;3.40;;
4409;SDS011;2218;51.408;7.208;2022-07-23T06:51:22;3.17;;;2.97;;
4409;SDS011;2218;51.408;7.208;2022-07-23T06:53:49;3.07;;;2.87;;
4409;SDS011;2218;51.408;7.208;2022-07-23T06:56:16;2.73;;;2.60;;
4409;SDS011;2218;51.408;7.208;2022-07-23T06:58:43;3.13;;;2.93;;
4409;SDS011;2218;51.408;7.208;2022-07-23T07:01:11;2.77;;;2.63;;
4409;SDS011;2218;51.408;7.208;2022-07-23T07:03:40;2.80;;;2.60;;
4409;SDS011;2218;51.408;7.208;2022-07-23T07:06:07;3.00;;;2.80;;
4409;SDS011;2218;51.408;7.208;2022-07-23T07:08:34;3.13;;;2.93;;
4409;SDS011;2218;51.408;7.208;2022-07-23T07:11:01;3.03;;;2.83;;
4409;SDS011;2218;51.408;7.208;2022-07-23T07:13:29;3.00;;;2.80;;
4409;SDS011;2218;51.408;7.208;2022-07-23T07:15:57;3.20;;;3.00;;
4409;SDS011;2218;51.408;7.208;2022-07-23T07:18:25;3.27;;;3.07;;
4409;SDS011;2218;51.408;7.208;2022-07-23T07:20:52;2.90;;;2.70;;
4409;SDS011;2218;51.408;7.208;2022-07-23T07:23:19;2.97;;;2.77;;
4409;SDS011;2218;51.408;7.208;2022-07-23T07:25:46;2.97;;;2.77;;
4409;SDS011;2218;51.408;7.208;2022-07-23T07:28:14;3.17;;;2.97;;
4409;SDS011;2218;51.408;7.208;2022-07-23T07:30:41;3.07;;;2.87;;
4409;SDS011;2218;51.408;7.208;2022-07-23T07:33:08;2.87;;;2.77;;
4409;SDS011;2218;51.408;7.208;2022-07-23T07:35:36;3.03;;;2.83;;
4409;SDS011;2218;51.408;7.208;2022-07-23T07:38:03;2.43;;;2.30;;
4409;SDS011;2218;51.408;7.208;2022-07-23T07:40:30;2.80;;;2.60;;
4409;SDS011;2218;51.408;7.208;2022-07-23T07:42:57;2.70;;;2.50;;
4409;SDS011;2218;51.408;7.208;2022-07-23T07:45:25;2.63;;;2.53;;
4409;SDS011;2218;51.408;7.208;2022-07-23T07:47:52;3.00;;;2.80;;
4409;SDS011;2218;51.408;7.208;2022-07-23T07:50:19;2.40;;;2.20;;
4409;SDS011;2218;51.408;7.208;2022-07-23T07:52:48;2.60;;;2.50;;
4409;SDS011;2218;51.408;7.208;2022-07-23T07:55:15;2.90;;;2.70;;
4409;SDS011;2218;51.408;7.208;2022-07-23T07:57:42;2.60;;;2.50;;
4409;SDS011;2218;51.408;7.208;2022-07-23T08:00:09;2.73;;;2.53;;
4409;SDS011;2218;51.408;7.208;2022-07-23T08:02:41;3.00;;;2.80;;
4409;SDS011;2218;51.408;7.208;2022-07-23T08:05:10;2.73;;;2.63;;
4409;SDS011;2218;51.408;7.208;2022-07-23T08:07:37;3.60;;;3.30;;
4409;SDS011;2218;51.408;7.208;2022-07-23T08:10:07;2.70;;;2.50;;
4409;SDS011;2218;51.408;7.208;2022-07-23T08:12:42;2.83;;;2.63;;
4409;SDS011;2218;51.408;7.208;2022-07-23T08:15:11;2.60;;;2.50;;
4409;SDS011;2218;51.408;7.208;2022-07-23T08:17:40;3.00;;;2.80;;
4409;SDS011;2218;51.408;7.208;2022-07-23T08:20:08;2.70;;;2.60;;
4409;SDS011;2218;51.408;7.208;2022-07-23T08:22:43;2.50;;;2.30;;
4409;SDS011;2218;51.408;7.208;2022-07-23T08:25:14;2.90;;;2.70;;
4409;SDS011;2218;51.408;7.208;2022-07-23T08:27:45;2.90;;;2.70;;
4409;SDS011;2218;51.408;7.208;2022-07-23T08:30:12;2.73;;;2.63;;
4409;SDS011;2218;51.408;7.208;2022-07-23T08:32:49;2.93;;;2.73;;
4409;SDS011;2218;51.408;7.208;2022-07-23T08:35:21;2.63;;;2.53;;
4409;SDS011;2218;51.408;7.208;2022-07-23T08:37:51;2.90;;;2.70;;
4409;SDS011;2218;51.408;7.208;2022-07-23T08:40:19;2.93;;;2.73;;
4409;SDS011;2218;51.408;7.208;2022-07-23T08:42:48;3.00;;;2.80;;
4409;SDS011;2218;51.408;7.208;2022-07-23T08:45:17;2.80;;;2.60;;
4409;SDS011;2218;51.408;7.208;2022-07-23T08:47:47;3.07;;;2.87;;
4409;SDS011;2218;51.408;7.208;2022-07-23T08:50:19;2.50;;;2.40;;
4409;SDS011;2218;51.408;7.208;2022-07-23T08:52:48;2.97;;;2.77;;
4409;SDS011;2218;51.408;7.208;2022-07-23T08:55:17;3.17;;;2.97;;
4409;SDS011;2218;51.408;7.208;2022-07-23T08:57:48;2.80;;;2.57;;
4409;SDS011;2218;51.408;7.208;2022-07-23T09:00:19;2.80;;;2.60;;
4409;SDS011;2218;51.408;7.208;2022-07-23T09:02:48;2.43;;;2.33;;
4409;SDS011;2218;51.408;7.208;2022-07-23T09:05:16;2.27;;;2.17;;
4409;SDS011;2218;51.408;7.208;2022-07-23T09:13:29;2.87;;;2.67;;
4409;SDS011;2218;51.408;7.208;2022-07-23T09:16:05;3.23;;;3.03;;
4409;SDS011;2218;51.408;7.208;2022-07-23T09:18:39;2.43;;;2.30;;
4409;SDS011;2218;51.408;7.208;2022-07-23T09:21:11;2.80;;;2.60;;
4409;SDS011;2218;51.408;7.208;2022-07-23T09:23:42;2.87;;;2.70;;
4409;SDS011;2218;51.408;7.208;2022-07-23T09:26:23;3.27;;;2.97;;
4409;SDS011;2218;51.408;7.208;2022-07-23T09:28:58;2.83;;;2.63;;
4409;SDS011;2218;51.408;7.208;2022-07-23T09:31:34;2.87;;;2.67;;
4409;SDS011;2218;51.408;7.208;2022-07-23T09:34:14;2.80;;;2.60;;
4409;SDS011;2218;51.408;7.208;2022-07-23T09:36:46;2.93;;;2.73;;
4409;SDS011;2218;51.408;7.208;2022-07-23T09:39:14;2.63;;;2.43;;
4409;SDS011;2218;51.408;7.208;2022-07-23T09:41:49;2.40;;;2.30;;
4409;SDS011;2218;51.408;7.208;2022-07-23T09:44:16;2.90;;;2.70;;
4409;SDS011;2218;51.408;7.208;2022-07-23T09:46:47;2.30;;;2.20;;
4409;SDS011;2218;51.408;7.208;2022-07-23T09:49:17;2.60;;;2.50;;
4409;SDS011;2218;51.408;7.208;2022-07-23T09:51:51;3.00;;;2.80;;
4409;SDS011;2218;51.408;7.208;2022-07-23T09:54:24;2.73;;;2.63;;
4409;SDS011;2218;51.408;7.208;2022-07-23T09:56:58;3.00;;;2.80;;
4409;SDS011;2218;51.408;7.208;2022-07-23T09:59:28;2.90;;;2.77;;
4409;SDS011;2218;51.408;7.208;2022-07-23T10:01:57;2.87;;;2.67;;
4409;SDS011;2218;51.408;7.208;2022-07-23T10:04:26;3.10;;;2.90;;
4409;SDS011;2218;51.408;7.208;2022-07-23T10:07:06;2.70;;;2.57;;
4409;SDS011;2218;51.408;7.208;2022-07-23T10:09:54;3.00;;;2.80;;
4409;SDS011;2218;51.408;7.208;2022-07-23T10:12:43;2.90;;;2.70;;
4409;SDS011;2218;51.408;7.208;2022-07-23T10:15:21;3.00;;;2.80;;
4409;SDS011;2218;51.408;7.208;2022-07-23T10:17:50;2.77;;;2.60;;
4409;SDS011;2218;51.408;7.208;2022-07-23T10:20:17;2.80;;;2.60;;
4409;SDS011;2218;51.408;7.208;2022-07-23T10:22:44;2.63;;;2.43;;
4409;SDS011;2218;51.408;7.208;2022-07-23T10:25:26;2.90;;;2.80;;
4409;SDS011;2218;51.408;7.208;2022-07-23T10:31:40;3.20;;;3.00;;
4409;SDS011;2218;51.408;7.208;2022-07-23T10:34:19;2.67;;;2.57;;
4409;SDS011;2218;51.408;7.208;2022-07-23T10:36:57;3.20;;;3.00;;
4409;SDS011;2218;51.408;7.208;2022-07-23T10:39:38;2.90;;;2.70;;
4409;SDS011;2218;51.408;7.208;2022-07-23T10:42:08;2.53;;;2.43;;
4409;SDS011;2218;51.408;7.208;2022-07-23T10:44:39;2.80;;;2.60;;
4409;SDS011;2218;51.408;7.208;2022-07-23T10:47:09;3.20;;;3.00;;
4409;SDS011;2218;51.408;7.208;2022-07-23T10:49:49;2.73;;;2.63;;
4409;SDS011;2218;51.408;7.208;2022-07-23T10:52:20;3.40;;;3.20;;
4409;SDS011;2218;51.408;7.208;2022-07-23T10:54:51;2.73;;;2.53;;
4409;SDS011;2218;51.408;7.208;2022-07-23T10:57:21;2.67;;;2.57;;
4409;SDS011;2218;51.408;7.208;2022-07-23T11:00:11;2.70;;;2.50;;
4409;SDS011;2218;51.408;7.208;2022-07-23T11:02:57;3.33;;;3.10;;
4409;SDS011;2218;51.408;7.208;2022-07-23T11:05:27;3.23;;;2.97;;
4409;SDS011;2218;51.408;7.208;2022-07-23T11:08:13;3.07;;;2.87;;
4409;SDS011;2218;51.408;7.208;2022-07-23T11:10:47;3.23;;;3.03;;
4409;SDS011;2218;51.408;7.208;2022-07-23T11:13:31;3.00;;;2.80;;
4409;SDS011;2218;51.408;7.208;2022-07-23T11:16:05;2.73;;;2.63;;
4409;SDS011;2218;51.408;7.208;2022-07-23T11:18:59;2.87;;;2.67;;
4409;SDS011;2218;51.408;7.208;2022-07-23T11:21:40;2.97;;;2.83;;
4409;SDS011;2218;51.408;7.208;2022-07-23T11:24:16;3.07;;;2.77;;
4409;SDS011;2218;51.408;7.208;2022-07-23T11:29:48;2.70;;;2.53;;
4409;SDS011;2218;51.408;7.208;2022-07-23T11:32:23;2.90;;;2.80;;
4409;SDS011;2218;51.408;7.208;2022-07-23T11:35:00;2.80;;;2.70;;
4409;SDS011;2218;51.408;7.208;2022-07-23T11:37:30;3.40;;;3.13;;
4409;SDS011;2218;51.408;7.208;2022-07-23T11:40:04;2.70;;;2.60;;
4409;SDS011;2218;51.408;7.208;2022-07-23T11:42:38;2.80;;;2.70;;
4409;SDS011;2218;51.408;7.208;2022-07-23T11:45:17;3.40;;;3.20;;
4409;SDS011;2218;51.408;7.208;2022-07-23T11:47:45;2.80;;;2.60;;
4409;SDS011;2218;51.408;7.208;2022-07-23T11:50:12;2.27;;;2.17;;
4409;SDS011;2218;51.408;7.208;2022-07-23T11:52:39;2.97;;;2.77;;
4409;SDS011;2218;51.408;7.208;2022-07-23T11:55:07;2.70;;;2.60;;
4409;SDS011;2218;51.408;7.208;2022-07-23T11:57:37;2.90;;;2.73;;
4409;SDS011;2218;51.408;7.208;2022-07-23T12:00:06;3.83;;;3.53;;
4409;SDS011;2218;51.408;7.208;2022-07-23T12:02:39;2.60;;;2.50;;
4409;SDS011;2218;51.408;7.208;2022-07-23T12:05:12;3.10;;;2.90;;
4409;SDS011;2218;51.408;7.208;2022-07-23T12:07:42;3.53;;;3.23;;
4409;SDS011;2218;51.408;7.208;2022-07-23T12:10:12;2.90;;;2.70;;
4409;SDS011;2218;51.408;7.208;2022-07-23T12:12:42;2.80;;;2.60;;
4409;SDS011;2218;51.408;7.208;2022-07-23T12:15:13;2.70;;;2.60;;
4409;SDS011;2218;51.408;7.208;2022-07-23T12:17:43;2.77;;;2.67;;
4409;SDS011;2218;51.408;7.208;2022-07-23T12:20:15;3.40;;;3.20;;
4409;SDS011;2218;51.408;7.208;2022-07-23T12:22:44;3.33;;;3.13;;
4409;SDS011;2218;51.408;7.208;2022-07-23T12:25:14;2.93;;;2.80;;
4409;SDS011;2218;51.408;7.208;2022-07-23T12:27:44;2.93;;;2.73;;
4409;SDS011;2218;51.408;7.208;2022-07-23T12:30:15;2.40;;;2.30;;
4409;SDS011;2218;51.408;7.208;2022-07-23T12:32:50;2.90;;;2.80;;
4409;SDS011;2218;51.408;7.208;2022-07-23T12:35:22;3.13;;;2.93;;
4409;SDS011;2218;51.408;7.208;2022-07-23T12:37:59;3.00;;;2.80;;
4409;SDS011;2218;51.408;7.208;2022-07-23T12:40:29;2.80;;;2.60;;
4409;SDS011;2218;51.408;7.208;2022-07-23T12:42:59;2.73;;;2.63;;
4409;SDS011;2218;51.408;7.208;2022-07-23T12:45:41;2.67;;;2.47;;
4409;SDS011;2218;51.408;7.208;2022-07-23T12:48:15;2.73;;;2.63;;
4409;SDS011;2218;51.408;7.208;2022-07-23T12:50:49;3.40;;;3.20;;
4409;SDS011;2218;51.408;7.208;2022-07-23T12:53:21;3.10;;;2.90;;
4409;SDS011;2218;51.408;7.208;2022-07-23T12:55:53;3.10;;;2.90;;
4409;SDS011;2218;51.408;7.208;2022-07-23T12:58:26;3.13;;;2.93;;
4409;SDS011;2218;51.408;7.208;2022-07-23T13:01:05;2.77;;;2.57;;
4409;SDS011;2218;51.408;7.208;2022-07-23T13:03:36;3.37;;;3.07;;
4409;SDS011;2218;51.408;7.208;2022-07-23T13:06:08;2.90;;;2.70;;
4409;SDS011;2218;51.408;7.208;2022-07-23T13:08:38;3.03;;;2.73;;
4409;SDS011;2218;51.408;7.208;2022-07-23T13:11:06;2.93;;;2.83;;
4409;SDS011;2218;51.408;7.208;2022-07-23T13:13:33;2.80;;;2.60;;
4409;SDS011;2218;51.408;7.208;2022-07-23T13:16:01;3.03;;;2.83;;
4409;SDS011;2218;51.408;7.208;2022-07-23T13:18:29;2.33;;;2.23;;
4409;SDS011;2218;51.408;7.208;2022-07-23T13:20:57;2.73;;;2.60;;
4409;SDS011;2218;51.408;7.208;2022-07-23T13:23:26;2.37;;;2.27;;
4409;SDS011;2218;51.408;7.208;2022-07-23T13:25:54;3.00;;;2.80;;
4409;SDS011;2218;51.408;7.208;2022-07-23T13:28:21;2.83;;;2.60;;
4409;SDS011;2218;51.408;7.208;2022-07-23T13:30:49;3.07;;;2.87;;
4409;SDS011;2218;51.408;7.208;2022-07-23T13:33:18;2.37;;;2.27;;
4409;SDS011;2218;51.408;7.208;2022-07-23T13:35:48;3.17;;;2.97;;
4409;SDS011;2218;51.408;7.208;2022-07-23T13:38:17;2.63;;;2.53;;
4409;SDS011;2218;51.408;7.208;2022-07-23T13:40:47;3.30;;;3.07;;
4409;SDS011;2218;51.408;7.208;2022-07-23T13:43:16;2.70;;;2.50;;
4409;SDS011;2218;51.408;7.208;2022-07-23T13:45:47;2.90;;;2.80;;
4409;SDS011;2218;51.408;7.208;2022-07-23T13:48:16;5.33;;;2.87;;
4409;SDS011;2218;51.408;7.208;2022-07-23T13:50:44;3.00;;;2.80;;
4409;SDS011;2218;51.408;7.208;2022-07-23T13:53:13;2.77;;;2.67;;
4409;SDS011;2218;51.408;7.208;2022-07-23T13:55:43;2.80;;;2.60;;
4409;SDS011;2218;51.408;7.208;2022-07-23T13:58:12;2.40;;;2.30;;
4409;SDS011;2218;51.408;7.208;2022-07-23T14:00:40;2.83;;;2.63;;
4409;SDS011;2218;51.408;7.208;2022-07-23T14:03:11;2.87;;;2.67;;
4409;SDS011;2218;51.408;7.208;2022-07-23T14:05:38;2.87;;;2.70;;
4409;SDS011;2218;51.408;7.208;2022-07-23T14:08:06;2.60;;;2.37;;
4409;SDS011;2218;51.408;7.208;2022-07-23T14:10:33;2.50;;;2.40;;
4409;SDS011;2218;51.408;7.208;2022-07-23T14:13:01;2.73;;;2.53;;
4409;SDS011;2218;51.408;7.208;2022-07-23T14:15:29;3.00;;;2.80;;
4409;SDS011;2218;51.408;7.208;2022-07-23T14:17:58;2.83;;;2.63;;
4409;SDS011;2218;51.408;7.208;2022-07-23T14:20:25;2.70;;;2.60;;
4409;SDS011;2218;51.408;7.208;2022-07-23T14:22:52;2.73;;;2.57;;
4409;SDS011;2218;51.408;7.208;2022-07-23T14:25:20;2.50;;;2.40;;
4409;SDS011;2218;51.408;7.208;2022-07-23T14:27:47;3.17;;;2.87;;
4409;SDS011;2218;51.408;7.208;2022-07-23T14:30:14;2.83;;;2.63;;
4409;SDS011;2218;51.408;7.208;2022-07-23T14:32:43;2.60;;;2.40;;
4409;SDS011;2218;51.408;7.208;2022-07-23T14:35:09;2.80;;;2.60;;
4409;SDS011;2218;51.408;7.208;2022-07-23T14:37:38;2.80;;;2.60;;
4409;SDS011;2218;51.408;7.208;2022-07-23T14:40:06;2.60;;;2.50;;
4409;SDS011;2218;51.408;7.208;2022-07-23T14:42:33;2.73;;;2.53;;
4409;SDS011;2218;51.408;7.208;2022-07-23T14:45:00;2.30;;;2.20;;
4409;SDS011;2218;51.408;7.208;2022-07-23T14:47:29;3.00;;;2.80;;
4409;SDS011;2218;51.408;7.208;2022-07-23T14:49:57;2.50;;;2.40;;
4409;SDS011;2218;51.408;7.208;2022-07-23T14:52:24;2.70;;;2.50;;
4409;SDS011;2218;51.408;7.208;2022-07-23T14:54:51;2.37;;;2.27;;
4409;SDS011;2218;51.408;7.208;2022-07-23T14:57:18;2.90;;;2.70;;
4409;SDS011;2218;51.408;7.208;2022-07-23T14:59:45;2.70;;;2.60;;
4409;SDS011;2218;51.408;7.208;2022-07-23T15:02:12;2.60;;;2.30;;
4409;SDS011;2218;51.408;7.208;2022-07-23T15:04:39;2.67;;;2.47;;
4409;SDS011;2218;51.408;7.208;2022-07-23T15:07:08;2.43;;;2.33;;
4409;SDS011;2218;51.408;7.208;2022-07-23T15:09:34;2.70;;;2.60;;
4409;SDS011;2218;51.408;7.208;2022-07-23T15:12:02;2.90;;;2.70;;
4409;SDS011;2218;51.408;7.208;2022-07-23T15:14:30;2.70;;;2.60;;
4409;SDS011;2218;51.408;7.208;2022-07-23T15:16:57;2.60;;;2.50;;
4409;SDS011;2218;51.408;7.208;2022-07-23T15:19:24;2.50;;;2.40;;
4409;SDS011;2218;51.408;7.208;2022-07-23T15:21:51;3.07;;;2.87;;
4409;SDS011;2218;51.408;7.208;2022-07-23T15:24:19;2.50;;;2.40;;
4409;SDS011;2218;51.408;7.208;2022-07-23T15:26:46;3.67;;;2.87;;
4409;SDS011;2218;51.408;7.208;2022-07-23T15:29:13;2.80;;;2.60;;
4409;SDS011;2218;51.408;7.208;2022-07-23T15:31:40;3.03;;;2.60;;
4409;SDS011;2218;51.408;7.208;2022-07-23T15:34:07;2.30;;;2.20;;
4409;SDS011;2218;51.408;7.208;2022-07-23T15:36:34;2.40;;;2.30;;
4409;SDS011;2218;51.408;7.208;2022-07-23T15:39:02;2.90;;;2.70;;
4409;SDS011;2218;51.408;7.208;2022-07-23T15:41:30;2.60;;;2.50;;